sensor_id;sensor_type;location;lat;lon;timestamp;P1;durP1;ratioP1;P2;durP2;ratioP2
22646;SDS011;11490;42.726;23.268;2022-12-31T00:01:41;48.65;;;25.77;;
22646;SDS011;11490;42.726;23.268;2022-12-31T00:04:06;51.70;;;26.65;;
22646;SDS011;11490;42.726;23.268;2022-12-31T00:06:32;49.22;;;25.35;;
22646;SDS011;11490;42.726;23.268;2022-12-31T00:09:00;50.75;;;26.75;;
22646;SDS011;11490;42.726;23.268;2022-12-31T00:11:28;46.70;;;24.35;;
22646;SDS011;11490;42.726;23.268;2022-12-31T00:13:54;56.95;;;26.95;;
22646;SDS011;11490;42.726;23.268;2022-12-31T00:16:27;63.97;;;33.42;;
22646;SDS011;11490;42.726;23.268;2022-12-31T00:18:55;89.65;;;46.50;;
22646;SDS011;11490;42.726;23.268;2022-12-31T00:21:25;83.30;;;42.28;;
22646;SDS011;11490;42.726;23.268;2022-12-31T00:23:52;91.05;;;43.55;;
22646;SDS011;11490;42.726;23.268;2022-12-31T00:26:19;81.82;;;43.60;;
22646;SDS011;11490;42.726;23.268;2022-12-31T00:28:46;76.45;;;39.00;;
22646;SDS011;11490;42.726;23.268;2022-12-31T00:31:13;67.93;;;33.83;;
22646;SDS011;11490;42.726;23.268;2022-12-31T00:33:43;59.00;;;33.38;;
22646;SDS011;11490;42.726;23.268;2022-12-31T00:36:10;95.90;;;46.95;;
22646;SDS011;11490;42.726;23.268;2022-12-31T00:38:40;76.10;;;38.72;;
22646;SDS011;11490;42.726;23.268;2022-12-31T00:41:07;68.30;;;38.63;;
22646;SDS011;11490;42.726;23.268;2022-12-31T00:43:32;68.72;;;37.67;;
22646;SDS011;11490;42.726;23.268;2022-12-31T00:45:58;88.88;;;40.17;;
22646;SDS011;11490;42.726;23.268;2022-12-31T00:48:25;61.65;;;33.00;;
22646;SDS011;11490;42.726;23.268;2022-12-31T00:50:51;69.50;;;33.38;;
22646;SDS011;11490;42.726;23.268;2022-12-31T00:53:16;74.43;;;39.05;;
22646;SDS011;11490;42.726;23.268;2022-12-31T00:55:42;77.53;;;39.33;;
22646;SDS011;11490;42.726;23.268;2022-12-31T00:58:07;66.60;;;34.60;;
22646;SDS011;11490;42.726;23.268;2022-12-31T01:00:33;70.88;;;35.85;;
22646;SDS011;11490;42.726;23.268;2022-12-31T01:02:59;59.50;;;33.60;;
22646;SDS011;11490;42.726;23.268;2022-12-31T01:05:25;45.35;;;26.45;;
22646;SDS011;11490;42.726;23.268;2022-12-31T01:07:50;47.53;;;27.45;;
22646;SDS011;11490;42.726;23.268;2022-12-31T01:10:16;45.65;;;25.00;;
22646;SDS011;11490;42.726;23.268;2022-12-31T01:13:01;44.92;;;25.40;;
22646;SDS011;11490;42.726;23.268;2022-12-31T01:15:26;45.97;;;27.15;;
22646;SDS011;11490;42.726;23.268;2022-12-31T01:17:52;45.78;;;29.02;;
22646;SDS011;11490;42.726;23.268;2022-12-31T01:20:17;46.47;;;25.70;;
22646;SDS011;11490;42.726;23.268;2022-12-31T01:22:42;40.70;;;24.38;;
22646;SDS011;11490;42.726;23.268;2022-12-31T01:25:08;47.35;;;24.75;;
22646;SDS011;11490;42.726;23.268;2022-12-31T01:27:33;51.85;;;27.75;;
22646;SDS011;11490;42.726;23.268;2022-12-31T01:29:59;46.58;;;25.13;;
22646;SDS011;11490;42.726;23.268;2022-12-31T01:32:24;48.28;;;26.17;;
22646;SDS011;11490;42.726;23.268;2022-12-31T01:34:49;45.50;;;26.33;;
22646;SDS011;11490;42.726;23.268;2022-12-31T01:37:15;51.05;;;25.42;;
22646;SDS011;11490;42.726;23.268;2022-12-31T01:39:40;47.33;;;23.65;;
22646;SDS011;11490;42.726;23.268;2022-12-31T01:42:08;44.35;;;26.48;;
22646;SDS011;11490;42.726;23.268;2022-12-31T01:47:01;51.85;;;27.60;;
22646;SDS011;11490;42.726;23.268;2022-12-31T01:49:35;47.83;;;26.90;;
22646;SDS011;11490;42.726;23.268;2022-12-31T01:52:06;52.20;;;27.80;;
22646;SDS011;11490;42.726;23.268;2022-12-31T01:54:38;47.83;;;26.13;;
22646;SDS011;11490;42.726;23.268;2022-12-31T01:57:09;59.08;;;27.42;;
22646;SDS011;11490;42.726;23.268;2022-12-31T01:59:35;42.85;;;26.88;;
22646;SDS011;11490;42.726;23.268;2022-12-31T02:02:01;44.50;;;27.15;;
22646;SDS011;11490;42.726;23.268;2022-12-31T02:04:27;51.38;;;28.13;;
22646;SDS011;11490;42.726;23.268;2022-12-31T02:07:03;52.55;;;27.60;;
22646;SDS011;11490;42.726;23.268;2022-12-31T02:09:31;49.47;;;27.48;;
22646;SDS011;11490;42.726;23.268;2022-12-31T02:11:57;51.33;;;28.33;;
22646;SDS011;11490;42.726;23.268;2022-12-31T02:20:13;50.60;;;28.13;;
22646;SDS011;11490;42.726;23.268;2022-12-31T02:26:02;52.88;;;30.73;;
22646;SDS011;11490;42.726;23.268;2022-12-31T02:31:36;46.00;;;27.83;;
22646;SDS011;11490;42.726;23.268;2022-12-31T02:37:02;54.92;;;27.58;;
22646;SDS011;11490;42.726;23.268;2022-12-31T02:39:31;52.95;;;28.83;;
22646;SDS011;11490;42.726;23.268;2022-12-31T02:41:58;60.53;;;29.95;;
22646;SDS011;11490;42.726;23.268;2022-12-31T02:44:25;48.92;;;27.85;;
22646;SDS011;11490;42.726;23.268;2022-12-31T02:49:28;57.83;;;27.48;;
22646;SDS011;11490;42.726;23.268;2022-12-31T03:00:17;54.95;;;24.88;;
22646;SDS011;11490;42.726;23.268;2022-12-31T03:03:01;51.83;;;26.30;;
22646;SDS011;11490;42.726;23.268;2022-12-31T03:05:30;52.22;;;28.02;;
22646;SDS011;11490;42.726;23.268;2022-12-31T03:07:58;48.83;;;27.23;;
22646;SDS011;11490;42.726;23.268;2022-12-31T03:10:23;49.50;;;24.23;;
22646;SDS011;11490;42.726;23.268;2022-12-31T03:12:49;52.30;;;24.05;;
22646;SDS011;11490;42.726;23.268;2022-12-31T03:15:22;45.63;;;25.48;;
22646;SDS011;11490;42.726;23.268;2022-12-31T03:18:09;49.20;;;26.25;;
22646;SDS011;11490;42.726;23.268;2022-12-31T03:20:40;42.35;;;25.40;;
22646;SDS011;11490;42.726;23.268;2022-12-31T03:23:32;46.25;;;24.63;;
22646;SDS011;11490;42.726;23.268;2022-12-31T03:26:00;46.92;;;24.48;;
22646;SDS011;11490;42.726;23.268;2022-12-31T03:28:28;46.65;;;27.65;;
22646;SDS011;11490;42.726;23.268;2022-12-31T03:30:56;49.38;;;27.63;;
22646;SDS011;11490;42.726;23.268;2022-12-31T03:33:23;53.30;;;28.15;;
22646;SDS011;11490;42.726;23.268;2022-12-31T03:35:50;50.58;;;28.55;;
22646;SDS011;11490;42.726;23.268;2022-12-31T03:38:17;50.60;;;29.23;;
22646;SDS011;11490;42.726;23.268;2022-12-31T03:40:44;43.80;;;26.50;;
22646;SDS011;11490;42.726;23.268;2022-12-31T03:43:11;44.50;;;24.75;;
22646;SDS011;11490;42.726;23.268;2022-12-31T03:45:37;41.78;;;23.70;;
22646;SDS011;11490;42.726;23.268;2022-12-31T03:48:03;55.08;;;27.85;;
22646;SDS011;11490;42.726;23.268;2022-12-31T03:50:30;38.22;;;26.63;;
22646;SDS011;11490;42.726;23.268;2022-12-31T03:52:55;40.78;;;24.70;;
22646;SDS011;11490;42.726;23.268;2022-12-31T03:55:21;46.33;;;24.83;;
22646;SDS011;11490;42.726;23.268;2022-12-31T03:57:46;39.03;;;23.63;;
22646;SDS011;11490;42.726;23.268;2022-12-31T04:00:12;41.33;;;27.42;;
22646;SDS011;11490;42.726;23.268;2022-12-31T04:02:40;48.58;;;27.67;;
22646;SDS011;11490;42.726;23.268;2022-12-31T04:05:06;42.72;;;26.55;;
22646;SDS011;11490;42.726;23.268;2022-12-31T04:07:32;54.28;;;27.88;;
22646;SDS011;11490;42.726;23.268;2022-12-31T04:09:57;57.38;;;27.75;;
22646;SDS011;11490;42.726;23.268;2022-12-31T04:12:22;52.03;;;28.73;;
22646;SDS011;11490;42.726;23.268;2022-12-31T04:14:48;51.92;;;28.77;;
22646;SDS011;11490;42.726;23.268;2022-12-31T04:17:14;50.05;;;27.13;;
22646;SDS011;11490;42.726;23.268;2022-12-31T04:19:40;43.20;;;26.45;;
22646;SDS011;11490;42.726;23.268;2022-12-31T04:22:05;45.10;;;25.90;;
22646;SDS011;11490;42.726;23.268;2022-12-31T04:24:31;51.58;;;26.88;;
22646;SDS011;11490;42.726;23.268;2022-12-31T04:26:56;49.55;;;25.23;;
22646;SDS011;11490;42.726;23.268;2022-12-31T04:29:22;44.67;;;26.33;;
22646;SDS011;11490;42.726;23.268;2022-12-31T04:31:47;45.33;;;28.05;;
22646;SDS011;11490;42.726;23.268;2022-12-31T04:34:13;46.72;;;25.17;;
22646;SDS011;11490;42.726;23.268;2022-12-31T04:36:38;55.58;;;27.52;;
22646;SDS011;11490;42.726;23.268;2022-12-31T04:39:03;46.92;;;27.40;;
22646;SDS011;11490;42.726;23.268;2022-12-31T04:41:29;50.03;;;27.23;;
22646;SDS011;11490;42.726;23.268;2022-12-31T04:43:55;45.05;;;24.98;;
22646;SDS011;11490;42.726;23.268;2022-12-31T04:46:25;46.65;;;27.15;;
22646;SDS011;11490;42.726;23.268;2022-12-31T04:48:53;44.25;;;25.45;;
22646;SDS011;11490;42.726;23.268;2022-12-31T04:51:19;43.83;;;25.05;;
22646;SDS011;11490;42.726;23.268;2022-12-31T04:53:45;42.38;;;24.27;;
22646;SDS011;11490;42.726;23.268;2022-12-31T04:56:11;48.33;;;25.63;;
22646;SDS011;11490;42.726;23.268;2022-12-31T04:58:37;49.22;;;24.40;;
22646;SDS011;11490;42.726;23.268;2022-12-31T05:01:03;39.45;;;24.48;;
22646;SDS011;11490;42.726;23.268;2022-12-31T05:03:29;44.20;;;23.95;;
22646;SDS011;11490;42.726;23.268;2022-12-31T05:06:02;54.78;;;28.08;;
22646;SDS011;11490;42.726;23.268;2022-12-31T05:08:30;43.88;;;25.77;;
22646;SDS011;11490;42.726;23.268;2022-12-31T05:10:56;45.95;;;25.33;;
22646;SDS011;11490;42.726;23.268;2022-12-31T05:13:21;47.47;;;24.67;;
22646;SDS011;11490;42.726;23.268;2022-12-31T05:15:47;42.45;;;25.50;;
22646;SDS011;11490;42.726;23.268;2022-12-31T05:18:13;44.53;;;24.85;;
22646;SDS011;11490;42.726;23.268;2022-12-31T05:20:38;44.25;;;22.92;;
22646;SDS011;11490;42.726;23.268;2022-12-31T05:23:04;45.60;;;24.88;;
22646;SDS011;11490;42.726;23.268;2022-12-31T05:25:29;48.72;;;27.65;;
22646;SDS011;11490;42.726;23.268;2022-12-31T05:27:55;44.42;;;28.33;;
22646;SDS011;11490;42.726;23.268;2022-12-31T05:30:20;47.90;;;27.20;;
22646;SDS011;11490;42.726;23.268;2022-12-31T05:32:46;49.70;;;26.60;;
22646;SDS011;11490;42.726;23.268;2022-12-31T05:35:11;44.08;;;26.30;;
22646;SDS011;11490;42.726;23.268;2022-12-31T05:37:37;46.38;;;24.02;;
22646;SDS011;11490;42.726;23.268;2022-12-31T05:40:03;45.75;;;27.95;;
22646;SDS011;11490;42.726;23.268;2022-12-31T05:42:29;43.13;;;26.83;;
22646;SDS011;11490;42.726;23.268;2022-12-31T05:44:54;55.50;;;29.95;;
22646;SDS011;11490;42.726;23.268;2022-12-31T05:47:20;53.08;;;29.67;;
22646;SDS011;11490;42.726;23.268;2022-12-31T05:49:45;54.25;;;31.35;;
22646;SDS011;11490;42.726;23.268;2022-12-31T05:52:10;49.25;;;28.05;;
22646;SDS011;11490;42.726;23.268;2022-12-31T05:54:36;47.70;;;26.67;;
22646;SDS011;11490;42.726;23.268;2022-12-31T05:57:05;61.45;;;41.50;;
22646;SDS011;11490;42.726;23.268;2022-12-31T05:59:31;60.28;;;31.25;;
22646;SDS011;11490;42.726;23.268;2022-12-31T06:01:57;53.92;;;28.08;;
22646;SDS011;11490;42.726;23.268;2022-12-31T06:04:23;45.15;;;28.63;;
22646;SDS011;11490;42.726;23.268;2022-12-31T06:06:49;49.85;;;30.30;;
22646;SDS011;11490;42.726;23.268;2022-12-31T06:09:15;52.28;;;31.23;;
22646;SDS011;11490;42.726;23.268;2022-12-31T06:11:41;45.60;;;27.58;;
22646;SDS011;11490;42.726;23.268;2022-12-31T06:14:07;44.70;;;27.42;;
22646;SDS011;11490;42.726;23.268;2022-12-31T06:16:33;42.63;;;26.40;;
22646;SDS011;11490;42.726;23.268;2022-12-31T06:18:58;46.25;;;27.25;;
22646;SDS011;11490;42.726;23.268;2022-12-31T06:21:24;45.40;;;28.63;;
22646;SDS011;11490;42.726;23.268;2022-12-31T06:23:49;76.85;;;33.40;;
22646;SDS011;11490;42.726;23.268;2022-12-31T06:26:14;60.60;;;31.52;;
22646;SDS011;11490;42.726;23.268;2022-12-31T06:28:40;73.88;;;34.97;;
22646;SDS011;11490;42.726;23.268;2022-12-31T06:31:06;79.05;;;39.75;;
22646;SDS011;11490;42.726;23.268;2022-12-31T06:33:35;86.68;;;40.35;;
22646;SDS011;11490;42.726;23.268;2022-12-31T06:36:02;82.10;;;42.75;;
22646;SDS011;11490;42.726;23.268;2022-12-31T06:38:30;185.90;;;75.60;;
22646;SDS011;11490;42.726;23.268;2022-12-31T06:40:56;99.43;;;48.03;;
22646;SDS011;11490;42.726;23.268;2022-12-31T06:43:22;125.05;;;56.50;;
22646;SDS011;11490;42.726;23.268;2022-12-31T06:45:47;103.07;;;47.17;;
22646;SDS011;11490;42.726;23.268;2022-12-31T06:48:13;92.43;;;44.83;;
22646;SDS011;11490;42.726;23.268;2022-12-31T06:50:38;79.65;;;41.35;;
22646;SDS011;11490;42.726;23.268;2022-12-31T06:53:05;89.47;;;43.90;;
22646;SDS011;11490;42.726;23.268;2022-12-31T06:55:30;76.07;;;41.70;;
22646;SDS011;11490;42.726;23.268;2022-12-31T06:57:56;83.72;;;42.13;;
22646;SDS011;11490;42.726;23.268;2022-12-31T07:00:22;87.70;;;43.38;;
22646;SDS011;11490;42.726;23.268;2022-12-31T07:03:00;86.35;;;44.17;;
22646;SDS011;11490;42.726;23.268;2022-12-31T07:05:45;88.10;;;41.92;;
22646;SDS011;11490;42.726;23.268;2022-12-31T07:08:36;77.13;;;38.95;;
22646;SDS011;11490;42.726;23.268;2022-12-31T07:11:14;75.18;;;41.30;;
22646;SDS011;11490;42.726;23.268;2022-12-31T07:17:07;67.82;;;40.83;;
22646;SDS011;11490;42.726;23.268;2022-12-31T07:22:17;95.95;;;45.75;;
22646;SDS011;11490;42.726;23.268;2022-12-31T07:24:43;90.80;;;47.28;;
22646;SDS011;11490;42.726;23.268;2022-12-31T07:27:17;87.10;;;49.95;;
22646;SDS011;11490;42.726;23.268;2022-12-31T07:35:17;110.75;;;57.10;;
22646;SDS011;11490;42.726;23.268;2022-12-31T07:41:20;80.10;;;43.35;;
22646;SDS011;11490;42.726;23.268;2022-12-31T07:47:00;56.78;;;33.15;;
22646;SDS011;11490;42.726;23.268;2022-12-31T07:49:30;50.75;;;29.70;;
22646;SDS011;11490;42.726;23.268;2022-12-31T07:51:57;53.00;;;33.80;;
22646;SDS011;11490;42.726;23.268;2022-12-31T07:54:23;47.80;;;27.00;;
22646;SDS011;11490;42.726;23.268;2022-12-31T07:56:49;57.97;;;31.67;;
22646;SDS011;11490;42.726;23.268;2022-12-31T08:05:06;56.10;;;32.83;;
22646;SDS011;11490;42.726;23.268;2022-12-31T08:07:36;68.00;;;36.45;;
22646;SDS011;11490;42.726;23.268;2022-12-31T08:12:41;65.78;;;38.28;;
22646;SDS011;11490;42.726;23.268;2022-12-31T08:15:11;67.65;;;37.83;;
22646;SDS011;11490;42.726;23.268;2022-12-31T08:17:38;77.53;;;40.97;;
22646;SDS011;11490;42.726;23.268;2022-12-31T08:20:04;71.53;;;38.92;;
22646;SDS011;11490;42.726;23.268;2022-12-31T08:22:35;72.78;;;41.25;;
22646;SDS011;11490;42.726;23.268;2022-12-31T08:33:34;63.88;;;35.42;;
22646;SDS011;11490;42.726;23.268;2022-12-31T08:41:16;83.10;;;43.78;;
22646;SDS011;11490;42.726;23.268;2022-12-31T08:49:28;59.47;;;35.60;;
22646;SDS011;11490;42.726;23.268;2022-12-31T08:51:58;62.78;;;37.97;;
22646;SDS011;11490;42.726;23.268;2022-12-31T08:54:25;50.72;;;34.35;;
22646;SDS011;11490;42.726;23.268;2022-12-31T09:08:31;46.03;;;28.13;;
22646;SDS011;11490;42.726;23.268;2022-12-31T09:11:10;47.28;;;27.25;;
22646;SDS011;11490;42.726;23.268;2022-12-31T09:16:41;44.20;;;24.55;;
22646;SDS011;11490;42.726;23.268;2022-12-31T09:19:17;54.15;;;30.17;;
22646;SDS011;11490;42.726;23.268;2022-12-31T09:21:42;44.10;;;26.73;;
22646;SDS011;11490;42.726;23.268;2022-12-31T09:24:12;46.90;;;28.35;;
22646;SDS011;11490;42.726;23.268;2022-12-31T09:32:06;35.03;;;21.88;;
22646;SDS011;11490;42.726;23.268;2022-12-31T09:40:23;46.72;;;23.17;;
22646;SDS011;11490;42.726;23.268;2022-12-31T09:45:48;35.40;;;24.02;;
22646;SDS011;11490;42.726;23.268;2022-12-31T09:48:57;32.13;;;20.60;;
22646;SDS011;11490;42.726;23.268;2022-12-31T09:51:36;36.67;;;22.10;;
22646;SDS011;11490;42.726;23.268;2022-12-31T10:09:58;42.92;;;24.60;;
22646;SDS011;11490;42.726;23.268;2022-12-31T10:15:38;40.40;;;24.38;;
22646;SDS011;11490;42.726;23.268;2022-12-31T10:29:11;38.83;;;22.45;;
22646;SDS011;11490;42.726;23.268;2022-12-31T10:37:23;37.95;;;22.35;;
22646;SDS011;11490;42.726;23.268;2022-12-31T10:40:19;41.95;;;23.73;;
22646;SDS011;11490;42.726;23.268;2022-12-31T11:29:47;38.33;;;22.80;;
22646;SDS011;11490;42.726;23.268;2022-12-31T11:32:35;44.50;;;23.25;;
22646;SDS011;11490;42.726;23.268;2022-12-31T11:38:01;44.72;;;24.77;;
22646;SDS011;11490;42.726;23.268;2022-12-31T11:41:01;44.05;;;22.65;;
22646;SDS011;11490;42.726;23.268;2022-12-31T11:57:20;35.50;;;20.75;;
22646;SDS011;11490;42.726;23.268;2022-12-31T11:59:54;39.92;;;22.65;;
22646;SDS011;11490;42.726;23.268;2022-12-31T12:02:31;111.57;;;63.38;;
22646;SDS011;11490;42.726;23.268;2022-12-31T12:05:00;44.40;;;26.80;;
22646;SDS011;11490;42.726;23.268;2022-12-31T12:07:27;69.10;;;38.70;;
22646;SDS011;11490;42.726;23.268;2022-12-31T12:09:55;38.67;;;24.40;;
22646;SDS011;11490;42.726;23.268;2022-12-31T12:12:22;34.20;;;19.95;;
22646;SDS011;11490;42.726;23.268;2022-12-31T12:14:50;39.58;;;22.85;;
22646;SDS011;11490;42.726;23.268;2022-12-31T12:17:27;33.50;;;21.65;;
22646;SDS011;11490;42.726;23.268;2022-12-31T12:20:01;38.17;;;21.33;;
22646;SDS011;11490;42.726;23.268;2022-12-31T12:22:46;30.52;;;19.83;;
22646;SDS011;11490;42.726;23.268;2022-12-31T12:25:20;31.08;;;19.52;;
22646;SDS011;11490;42.726;23.268;2022-12-31T12:27:47;32.17;;;19.58;;
22646;SDS011;11490;42.726;23.268;2022-12-31T12:32:52;83.82;;;49.55;;
22646;SDS011;11490;42.726;23.268;2022-12-31T12:35:27;35.47;;;22.23;;
22646;SDS011;11490;42.726;23.268;2022-12-31T12:37:59;40.50;;;22.58;;
22646;SDS011;11490;42.726;23.268;2022-12-31T12:40:30;32.15;;;19.00;;
22646;SDS011;11490;42.726;23.268;2022-12-31T12:42:57;25.40;;;16.17;;
22646;SDS011;11490;42.726;23.268;2022-12-31T12:45:24;28.25;;;16.55;;
22646;SDS011;11490;42.726;23.268;2022-12-31T12:47:55;24.73;;;15.40;;
22646;SDS011;11490;42.726;23.268;2022-12-31T12:50:24;27.42;;;15.90;;
22646;SDS011;11490;42.726;23.268;2022-12-31T12:58:41;36.47;;;18.73;;
22646;SDS011;11490;42.726;23.268;2022-12-31T13:07:26;23.60;;;14.00;;
22646;SDS011;11490;42.726;23.268;2022-12-31T13:15:20;20.52;;;11.15;;
22646;SDS011;11490;42.726;23.268;2022-12-31T13:20:40;22.48;;;12.95;;
22646;SDS011;11490;42.726;23.268;2022-12-31T13:23:30;21.30;;;11.45;;
22646;SDS011;11490;42.726;23.268;2022-12-31T13:28:34;15.32;;;10.93;;
22646;SDS011;11490;42.726;23.268;2022-12-31T13:31:05;21.23;;;12.90;;
22646;SDS011;11490;42.726;23.268;2022-12-31T13:33:43;22.23;;;11.45;;
22646;SDS011;11490;42.726;23.268;2022-12-31T13:36:22;14.90;;;9.35;;
22646;SDS011;11490;42.726;23.268;2022-12-31T13:38:51;18.60;;;10.00;;
22646;SDS011;11490;42.726;23.268;2022-12-31T13:49:00;15.75;;;10.63;;
22646;SDS011;11490;42.726;23.268;2022-12-31T13:51:33;21.23;;;14.57;;
22646;SDS011;11490;42.726;23.268;2022-12-31T13:54:09;25.48;;;18.98;;
22646;SDS011;11490;42.726;23.268;2022-12-31T13:56:57;25.52;;;15.00;;
22646;SDS011;11490;42.726;23.268;2022-12-31T13:59:30;24.23;;;14.82;;
22646;SDS011;11490;42.726;23.268;2022-12-31T14:07:54;18.88;;;11.57;;
22646;SDS011;11490;42.726;23.268;2022-12-31T14:13:21;15.70;;;10.45;;
22646;SDS011;11490;42.726;23.268;2022-12-31T14:16:10;18.40;;;10.85;;
22646;SDS011;11490;42.726;23.268;2022-12-31T14:21:26;30.73;;;15.85;;
22646;SDS011;11490;42.726;23.268;2022-12-31T14:26:38;25.83;;;15.45;;
22646;SDS011;11490;42.726;23.268;2022-12-31T14:32:06;31.10;;;14.75;;
22646;SDS011;11490;42.726;23.268;2022-12-31T14:48:29;30.75;;;18.30;;
22646;SDS011;11490;42.726;23.268;2022-12-31T14:51:04;48.75;;;22.02;;
22646;SDS011;11490;42.726;23.268;2022-12-31T14:53:30;41.75;;;22.92;;
22646;SDS011;11490;42.726;23.268;2022-12-31T14:56:02;34.00;;;21.70;;
22646;SDS011;11490;42.726;23.268;2022-12-31T14:59:34;30.30;;;20.08;;
22646;SDS011;11490;42.726;23.268;2022-12-31T15:01:48;51.40;;;26.35;;
22646;SDS011;11490;42.726;23.268;2022-12-31T15:04:14;51.25;;;27.33;;
22646;SDS011;11490;42.726;23.268;2022-12-31T15:07:03;53.97;;;22.55;;
22646;SDS011;11490;42.726;23.268;2022-12-31T15:23:19;54.10;;;26.98;;
22646;SDS011;11490;42.726;23.268;2022-12-31T15:25:47;71.82;;;33.75;;
22646;SDS011;11490;42.726;23.268;2022-12-31T15:28:35;64.45;;;30.48;;
22646;SDS011;11490;42.726;23.268;2022-12-31T15:33:39;55.35;;;27.40;;
22646;SDS011;11490;42.726;23.268;2022-12-31T15:36:16;51.67;;;28.70;;
22646;SDS011;11490;42.726;23.268;2022-12-31T15:38:44;50.55;;;26.75;;
22646;SDS011;11490;42.726;23.268;2022-12-31T15:41:14;54.05;;;28.27;;
22646;SDS011;11490;42.726;23.268;2022-12-31T15:46:09;53.20;;;28.52;;
22646;SDS011;11490;42.726;23.268;2022-12-31T15:48:45;42.58;;;25.65;;
22646;SDS011;11490;42.726;23.268;2022-12-31T15:51:20;50.50;;;27.17;;
22646;SDS011;11490;42.726;23.268;2022-12-31T15:53:51;50.88;;;28.70;;
22646;SDS011;11490;42.726;23.268;2022-12-31T15:56:21;52.17;;;26.98;;
22646;SDS011;11490;42.726;23.268;2022-12-31T15:59:02;44.00;;;26.83;;
22646;SDS011;11490;42.726;23.268;2022-12-31T16:01:35;48.58;;;26.08;;
22646;SDS011;11490;42.726;23.268;2022-12-31T16:04:34;48.45;;;27.40;;
22646;SDS011;11490;42.726;23.268;2022-12-31T16:06:56;69.25;;;38.00;;
22646;SDS011;11490;42.726;23.268;2022-12-31T16:09:26;62.72;;;33.85;;
22646;SDS011;11490;42.726;23.268;2022-12-31T16:11:58;60.42;;;31.83;;
22646;SDS011;11490;42.726;23.268;2022-12-31T16:14:27;70.88;;;35.70;;
22646;SDS011;11490;42.726;23.268;2022-12-31T16:17:02;70.20;;;35.00;;
22646;SDS011;11490;42.726;23.268;2022-12-31T16:19:29;60.88;;;34.42;;
22646;SDS011;11490;42.726;23.268;2022-12-31T16:22:22;80.82;;;36.28;;
22646;SDS011;11490;42.726;23.268;2022-12-31T16:25:03;64.72;;;37.65;;
22646;SDS011;11490;42.726;23.268;2022-12-31T16:27:29;83.75;;;39.13;;
22646;SDS011;11490;42.726;23.268;2022-12-31T16:29:58;69.05;;;37.78;;
22646;SDS011;11490;42.726;23.268;2022-12-31T16:32:26;68.50;;;37.40;;
22646;SDS011;11490;42.726;23.268;2022-12-31T16:34:58;86.13;;;42.20;;
22646;SDS011;11490;42.726;23.268;2022-12-31T16:37:24;82.60;;;44.45;;
22646;SDS011;11490;42.726;23.268;2022-12-31T16:42:20;89.60;;;51.15;;
22646;SDS011;11490;42.726;23.268;2022-12-31T16:44:50;94.90;;;50.22;;
22646;SDS011;11490;42.726;23.268;2022-12-31T16:47:35;81.22;;;46.15;;
22646;SDS011;11490;42.726;23.268;2022-12-31T16:50:06;87.43;;;49.72;;
22646;SDS011;11490;42.726;23.268;2022-12-31T16:52:43;96.20;;;46.78;;
22646;SDS011;11490;42.726;23.268;2022-12-31T16:55:21;93.57;;;44.65;;
22646;SDS011;11490;42.726;23.268;2022-12-31T16:57:49;88.50;;;48.70;;
22646;SDS011;11490;42.726;23.268;2022-12-31T17:00:22;93.15;;;46.60;;
22646;SDS011;11490;42.726;23.268;2022-12-31T17:02:53;111.32;;;52.38;;
22646;SDS011;11490;42.726;23.268;2022-12-31T17:05:24;95.38;;;51.97;;
22646;SDS011;11490;42.726;23.268;2022-12-31T17:07:50;93.07;;;52.63;;
22646;SDS011;11490;42.726;23.268;2022-12-31T17:12:44;111.82;;;53.75;;
22646;SDS011;11490;42.726;23.268;2022-12-31T17:15:16;97.60;;;50.47;;
22646;SDS011;11490;42.726;23.268;2022-12-31T17:17:48;105.18;;;55.95;;
22646;SDS011;11490;42.726;23.268;2022-12-31T17:20:18;113.65;;;58.22;;
22646;SDS011;11490;42.726;23.268;2022-12-31T17:22:51;132.63;;;61.08;;
22646;SDS011;11490;42.726;23.268;2022-12-31T17:25:21;111.13;;;58.75;;
22646;SDS011;11490;42.726;23.268;2022-12-31T17:27:52;118.57;;;62.00;;
22646;SDS011;11490;42.726;23.268;2022-12-31T17:33:25;106.07;;;58.58;;
22646;SDS011;11490;42.726;23.268;2022-12-31T17:35:58;108.80;;;58.25;;
22646;SDS011;11490;42.726;23.268;2022-12-31T17:38:38;107.65;;;55.28;;
22646;SDS011;11490;42.726;23.268;2022-12-31T17:43:30;102.75;;;55.22;;
22646;SDS011;11490;42.726;23.268;2022-12-31T17:46:09;95.45;;;50.45;;
22646;SDS011;11490;42.726;23.268;2022-12-31T17:48:40;103.80;;;52.83;;
22646;SDS011;11490;42.726;23.268;2022-12-31T17:51:07;106.97;;;57.90;;
22646;SDS011;11490;42.726;23.268;2022-12-31T17:53:33;102.95;;;51.72;;
22646;SDS011;11490;42.726;23.268;2022-12-31T17:56:00;114.47;;;55.97;;
22646;SDS011;11490;42.726;23.268;2022-12-31T17:58:31;87.90;;;52.25;;
22646;SDS011;11490;42.726;23.268;2022-12-31T18:00:59;108.80;;;53.72;;
22646;SDS011;11490;42.726;23.268;2022-12-31T18:03:26;92.35;;;47.42;;
22646;SDS011;11490;42.726;23.268;2022-12-31T18:05:52;97.30;;;49.72;;
22646;SDS011;11490;42.726;23.268;2022-12-31T18:08:17;87.22;;;47.95;;
22646;SDS011;11490;42.726;23.268;2022-12-31T18:10:43;98.53;;;49.65;;
22646;SDS011;11490;42.726;23.268;2022-12-31T18:13:15;85.70;;;44.88;;
22646;SDS011;11490;42.726;23.268;2022-12-31T18:15:42;92.43;;;42.95;;
22646;SDS011;11490;42.726;23.268;2022-12-31T18:18:15;85.97;;;46.90;;
22646;SDS011;11490;42.726;23.268;2022-12-31T18:20:47;88.70;;;45.72;;
22646;SDS011;11490;42.726;23.268;2022-12-31T18:23:22;84.60;;;45.35;;
22646;SDS011;11490;42.726;23.268;2022-12-31T18:25:49;104.57;;;44.88;;
22646;SDS011;11490;42.726;23.268;2022-12-31T18:28:14;93.45;;;45.83;;
22646;SDS011;11490;42.726;23.268;2022-12-31T18:30:40;82.82;;;46.03;;
22646;SDS011;11490;42.726;23.268;2022-12-31T18:33:07;89.57;;;43.50;;
22646;SDS011;11490;42.726;23.268;2022-12-31T18:35:35;90.45;;;44.80;;
22646;SDS011;11490;42.726;23.268;2022-12-31T18:38:01;81.65;;;43.45;;
22646;SDS011;11490;42.726;23.268;2022-12-31T18:40:26;83.40;;;43.88;;
22646;SDS011;11490;42.726;23.268;2022-12-31T18:42:52;99.88;;;48.58;;
22646;SDS011;11490;42.726;23.268;2022-12-31T18:45:17;93.82;;;51.63;;
22646;SDS011;11490;42.726;23.268;2022-12-31T18:47:44;104.63;;;52.60;;
22646;SDS011;11490;42.726;23.268;2022-12-31T18:50:13;112.20;;;56.50;;
22646;SDS011;11490;42.726;23.268;2022-12-31T18:52:39;103.35;;;52.90;;
22646;SDS011;11490;42.726;23.268;2022-12-31T18:55:19;102.18;;;55.70;;
22646;SDS011;11490;42.726;23.268;2022-12-31T18:57:48;119.35;;;55.65;;
22646;SDS011;11490;42.726;23.268;2022-12-31T19:00:14;105.63;;;52.10;;
22646;SDS011;11490;42.726;23.268;2022-12-31T19:02:39;102.43;;;50.22;;
22646;SDS011;11490;42.726;23.268;2022-12-31T19:05:21;90.35;;;49.90;;
22646;SDS011;11490;42.726;23.268;2022-12-31T19:07:48;101.97;;;51.42;;
22646;SDS011;11490;42.726;23.268;2022-12-31T19:10:13;103.40;;;49.13;;
22646;SDS011;11490;42.726;23.268;2022-12-31T19:12:40;94.70;;;48.03;;
22646;SDS011;11490;42.726;23.268;2022-12-31T19:15:26;91.78;;;48.03;;
22646;SDS011;11490;42.726;23.268;2022-12-31T19:17:57;92.03;;;46.22;;
22646;SDS011;11490;42.726;23.268;2022-12-31T19:20:27;77.05;;;43.47;;